Christophe Olivier

Olheiro-Chefe - Dijon
8 Jan 2028
Sábado
Processo

Personalidade

Adaptabilidade (13) Ambição (19) Controvérsia (18) Lealdade (10) Pressão (16) Profissionalismo (18) Espírito Esportivo (14) Temperamento (14)

Perfil

Estilo de Treinamento Democrático
Licença Continental C
Determinação 11
Gestão de Pessoas 9
Motivação 5
Disciplina 8
Satisfação no Trabalho
100%
Fadiga
0%
Função Olheiro-Chefe
Salário 74.6K p/s
Contrato 14.03.2029

Desempenho

Comportamento Bom
Eficácia do Treinamento
34%
Desenvolvimento do Jogador
25%
Prevenção de Lesões
55%
Implementação Tática
25%

Eventos Recentes

Recomendou um alvo de transferência agora
Recomendou um alvo de transferência agora
Recomendou um alvo de transferência agora
Recomendou um alvo de transferência agora
Apresentou um dossiê à direção agora
Apresentou um dossiê à direção agora
Apresentou um dossiê à direção agora
Apresentou um dossiê à direção agora

Monitorando agora

153
Jogador Clube Status Habilidade Confiança Observado Última observação Último voto
Elkín Morales Universitario Popayan Ativo 76 / 85 40% 3 30.12.2027 -
Tyson Pearce St. Louis CITY SC Ativo 96 / 101 40% 4 30.12.2027 -
Salvador Blopá Sporting CP Ativo 118 / 114 40% 4 30.12.2027 -
Joel Ezra Enyimba Ativo 98 / 97 40% 2 28.12.2027 -
Guy Noël Zohouri Le Havre AC Ativo 122 / 121 40% 3 28.12.2027 -
Joachim Kayi Sanda Southampton Ativo 116 / 126 40% 2 26.12.2027 -
Josh Nichols Tranmere Rovers Ativo 119 / 133 40% 1 26.12.2027 -
Kevin Otiende Nairobi United Ativo 77 / 63 40% 1 25.12.2027 -
Ethan Apkakou Excelsior Ativo 105 / 98 40% 1 25.12.2027 -
Gladson Sulemana Liberty Professionals Ativo 97 / 106 40% 1 25.12.2027 -
Matias Siltanen Malmo FF Ativo 120 / 130 40% 3 23.12.2027 -
Facundo Balatti Penarol Ativo 109 / 95 40% 1 23.12.2027 -
Joseph Dupuis Tours Ativo 110 / 105 40% 1 23.12.2027 -
Biel La Equidad Ativo 118 / 109 40% 2 20.12.2027 -
Joe Johnson Luton Town Ativo 104 / 109 40% 2 20.12.2027 -
Inti Borghetto Patronato Ativo 88 / 97 40% 3 20.12.2027 -
Lilian Deville Astra Ativo 82 / 81 40% 2 19.12.2027 -
Azizbek To'lqinbekov Bunyodkor Ativo 94 / 92 40% 1 19.12.2027 -
Kauã Moraes Cruzeiro Ativo 128 / 126 40% 4 18.12.2027 -
Bradel Kiwa Monaco Ativo 128 / 131 40% 3 18.12.2027 -
Sebastián Ramírez America de Cali Ativo 105 / 114 40% 3 17.12.2027 -
Paris Irie OH Leuven Ativo 84 / 85 40% 1 17.12.2027 -
Martim Cunha Porto Ativo 105 / 123 40% 1 17.12.2027 -
Juan Camilo Córdoba Deportivo Pereira Ativo 83 / 92 40% 3 16.12.2027 -
Alpha Touré FC Metz Ativo 116 / 134 40% 3 16.12.2027 -
Matéo Beaslas Excelsior Ativo 79 / 90 40% 2 16.12.2027 -
Mads Bomholt Lillestrom Ativo 102 / 97 40% 3 15.12.2027 -
Halam Loboa Independiente Medellin Ativo 125 / 124 40% 4 15.12.2027 -
Felipe Obradovich Gimnasia La Plata Ativo 102 / 114 40% 2 14.12.2027 -
Aiden Hezarkhani Real Salt Lake Ativo 92 / 107 40% 3 12.12.2027 -
Sergio Casseres Llaneros Ativo 78 / 87 40% 2 12.12.2027 -
Edvard Pettersen Sandefjord Ativo 107 / 120 40% 3 11.12.2027 -
Kenan Busuladžić Malmo FF Ativo 107 / 125 40% 3 11.12.2027 -
Kieran Morgan Queens Park Rangers Ativo 122 / 126 40% 2 10.12.2027 -
Amine Boukamir Charleroi Ativo 101 / 100 40% 1 10.12.2027 -
Bastien Meupiyou Alverca Ativo 125 / 127 40% 2 03.12.2027 -
Cristian Guzmán Universitario Popayan Ativo 83 / 80 40% 2 03.12.2027 -
Cheveyo Tsawa Standard Liege Ativo 121 / 129 40% 1 29.11.2027 -
Junior Nemi Dynamo Douala Ativo 68 / 62 40% 1 29.11.2027 -
Mathys Angély VfL Wolfsburg Ativo 118 / 123 40% 2 28.11.2027 -
Felipe Faúndez O'Higgins Ativo 105 / 96 40% 1 28.11.2027 -
Sheriff Amuda Shooting Stars Ativo 89 / 99 40% 1 28.11.2027 -
Albin Mustafic AE Kition Ativo 81 / 94 40% 1 27.11.2027 -
Sergio Castillo Cortulua Ativo 110 / 114 40% 1 27.11.2027 -
Lucas Mbamba Westerlo Ativo 94 / 100 40% 2 24.11.2027 -
Tobias Moi Bodo/Glimt Ativo 111 / 120 40% 2 24.11.2027 -
Olaniyi Saheed Kwara United Ativo 98 / 106 40% 4 21.11.2027 -
Bade Aluko Accrington Stanley Ativo 123 / 129 40% 2 21.11.2027 -
Ibrahim Coulibaly Clermont Foot Ativo 114 / 109 40% 4 20.11.2027 -
Björn Hedlöf Helsingborg Ativo 90 / 99 40% 1 20.11.2027 -
Thomas Cordier Westerlo Ativo 88 / 107 40% 1 17.11.2027 -
Esteban Thyvent KV Oostende Ativo 83 / 94 40% 1 17.11.2027 -
Mathis Coudour Lokeren Ativo 95 / 109 40% 1 15.11.2027 -
Fodé Sylla Sion Ativo 116 / 131 40% 2 13.11.2027 -
Lautaro Dufur Rentistas Ativo 105 / 113 40% 2 13.11.2027 -
Luis Otávio Toronto FC Ativo 114 / 130 40% 1 10.11.2027 -
Gady Beyuku Blackburn Rovers Ativo 114 / 136 40% 2 05.11.2027 -
Tiago Gordillo San Miguel Ativo 90 / 113 40% 2 05.11.2027 -
David Asayure Lokomotivi Ativo 81 / 89 40% 1 03.11.2027 -
Adrian Gill Atlanta United FC Ativo 98 / 103 40% 1 29.10.2027 -
Uche Jaguar Kwara United Ativo 92 / 101 40% 3 28.10.2027 -
Esquerdinha Oldham Athletic Ativo 117 / 136 40% 1 27.10.2027 -
Godwin Oham Warri Wolves Ativo 86 / 95 40% 1 24.10.2027 -
Ignacio Pérez Antofagasta Ativo 98 / 121 40% 1 20.10.2027 -
Kaick FC Dallas Ativo 104 / 113 40% 1 15.10.2027 -
Agustín Medina Lanús Ativo 112 / 117 40% 1 14.10.2027 -
Onyeuche Ujunwa Ikorodu City Ativo 87 / 95 40% 1 14.10.2027 -
Juan Manuel Villalba Boca Juniors Ativo 122 / 128 40% 2 12.10.2027 -
Sakhalou Niakaté Botosani Ativo 82 / 96 40% 1 12.10.2027 -
Jackson Imbiakha Muranga Seal Ativo 75 / 85 40% 1 11.10.2027 -
Mouhamadou Sall Zulte Waregem Ativo 94 / 108 40% 1 10.10.2027 -
Pape Diong Westerlo Ativo 114 / 122 40% 1 08.10.2027 -
João Simões Sporting CP Ativo 139 / 145 40% 1 27.07.2027 -
Hosea Michael Remo Stars Ativo 89 / 88 40% 1 27.07.2027 -
Edmund Inusah WAFA Ativo 80 / 80 40% 1 27.07.2027 -
Hendricks Cakin US Creteil Ativo 92 / 80 79% 1 19.07.2027 Aprovar
Sascha Britschgi Catanzaro Ativo 124 / 119 40% 1 30.06.2027 -
Yusi Alavés Ativo 133 / 130 40% 1 30.06.2027 -
Frédérique Dawaï Cotonsport Garoua Ativo 76 / 96 40% 1 21.06.2027 -
Louis Leroux FC Nantes Ativo 126 / 141 40% 1 21.06.2027 -
Patrick Berg Borussia Mönchengladbach Ativo 141 / 141 62% 1 01.06.2027 Aprovar
Jay Stansfield Birmingham Ativo 132 / 123 40% 1 31.05.2027 -
Ryad Hachem FC Nantes Ativo 104 / 101 69% 1 18.01.2027 Aprovar
Yanel Zeze FC Nantes Ativo 82 / 80 69% 1 11.01.2027 Aprovar
Adrien Louveau US Creteil Ativo 95 / 102 69% 1 06.01.2027 Aprovar
Amar Memić Juventude Ativo 127 / 128 62% 1 01.01.2027 Aprovar
Adrian Dragusin CFR Cluj Ativo 141 / 142 63% 1 01.01.2027 Aprovar
Mao Hosoya Manchester City Ativo 134 / 135 67% 1 01.01.2027 Aprovar
Mamadou Diakhon Club Brugge Ativo 123 / 119 40% 2 31.12.2026 -
Marley Aké Zulte Waregem Ativo 112 / 117 40% 2 31.12.2026 -
Aimé Omgba KAA Gent Ativo 119 / 132 40% 2 31.12.2026 -
Abdoulaye Sissako Sint-Truiden Ativo 122 / 123 40% 6 30.12.2026 -
Dominique Noël Tours Ativo 121 / 123 40% 2 30.12.2026 -
Claudy M'Buyi Rapid Wien Ativo 120 / 106 40% 1 30.12.2026 -
Yaimar Medina Racing Genk Ativo 117 / 120 40% 2 29.12.2026 -
Enzo Loiodice KAA Gent Ativo 124 / 132 40% 4 28.12.2026 -
Alexis Blin KV Kortrijk Ativo 113 / 124 40% 3 28.12.2026 -
Thibaud Verlinden OH Leuven Ativo 130 / 123 40% 1 28.12.2026 -
Kevin Amaro Racing Genk Ativo 121 / 130 40% 1 27.12.2026 -
Dylan Ourega Westerlo Ativo 111 / 103 40% 4 26.12.2026 -
Lamine Cissé Peterborough United Ativo 115 / 128 40% 1 26.12.2026 -
Mohamed Brahimi CSKA Sofia Ativo 107 / 99 40% 2 25.12.2026 -
Oussama Idrissi Ferencvaros Ativo 139 / 136 40% 3 25.12.2026 -
Léandre Kuavita Waasland-Beveren Ativo 110 / 112 40% 1 25.12.2026 -
Arno Verschueren Waasland-Beveren Ativo 125 / 131 40% 1 25.12.2026 -
El Hadji Malick Diouf Brentford Ativo 134 / 142 40% 2 24.12.2026 -
Serxho Ujka Zulte Waregem Ativo 115 / 123 40% 3 22.12.2026 -
Adnan Januzaj KAA Gent Ativo 129 / 130 40% 2 22.12.2026 -
Nacer Mignolet KV Oostende Ativo 125 / 134 40% 2 21.12.2026 -
Abdelkahar Kadri KAA Gent Ativo 126 / 112 40% 4 21.12.2026 -
Lois Januzaj Mouscron Ativo 112 / 119 40% 1 21.12.2026 -
Taiga Hata Sint-Truiden Ativo 119 / 124 40% 1 21.12.2026 -
Dimitri Lavalée Standard Liege Ativo 128 / 125 40% 3 19.12.2026 -
Armand Laurienté Sassuolo Ativo 129 / 129 40% 1 17.12.2026 -
Ilias Sebaoui Sint-Truiden Ativo 129 / 126 40% 5 16.12.2026 -
Jérémy Livolant Casa Pia Ativo 124 / 120 40% 2 14.12.2026 -
Makan Aïko Tondela Ativo 114 / 117 40% 1 14.12.2026 -
Ryotaro Ito Sint-Truiden Ativo 122 / 131 40% 2 10.12.2026 -
Henok Teklab OH Leuven Ativo 125 / 114 40% 1 10.12.2026 -
Antoine Bernard Chamois Niortais Ativo 144 / 131 40% 2 09.12.2026 -
Rominigue Kouamé OH Leuven Ativo 120 / 131 40% 2 08.12.2026 -
Loum Tchaouna Coventry City Ativo 129 / 138 40% 3 08.12.2026 -
Siebe Schrijvers OH Leuven Ativo 113 / 111 40% 1 08.12.2026 -
Maksim Kireev KV Mechelen Ativo 111 / 128 40% 2 07.12.2026 -
Antoine Colassin Charleroi Ativo 116 / 130 40% 1 23.11.2026 -
Lucas Da Cunha Como Ativo 139 / 139 40% 3 22.11.2026 -
Pau Víctor Estrela da Amadora Ativo 136 / 130 40% 1 22.11.2026 -
William Balikwisha OH Leuven Ativo 113 / 112 40% 3 21.11.2026 -
Hakim Guenouche Genoa Ativo 123 / 127 40% 2 21.11.2026 -
Daan Heymans Racing Genk Ativo 118 / 130 40% 3 20.11.2026 -
Matisse Samoise KAA Gent Ativo 119 / 127 40% 1 20.11.2026 -
Hugo Vandermersch St. Gallen Ativo 118 / 117 40% 1 20.11.2026 -
Imrân Louza Watford Ativo 130 / 124 40% 1 20.11.2026 -
Boubacar Fofana Sochaux Ativo 119 / 125 40% 3 19.11.2026 -
Thorgan Castagne KV Oostende Ativo 123 / 114 40% 2 19.11.2026 -
Sylvester Jasper Standard Liege Ativo 111 / 113 40% 1 18.11.2026 -
Zinho Castagne KV Oostende Ativo 141 / 132 40% 1 03.11.2026 -
Serge-Philippe Raux-Yao Rapid Wien Ativo 127 / 127 40% 1 03.11.2026 -
Allan Saint-Maximin Charlotte Football Club Ativo 142 / 122 40% 2 09.10.2026 -
Kevin Chadli Mouscron Ativo 121 / 133 40% 1 05.10.2026 -
Joseph Paintsil LA Galaxy Ativo 130 / 126 40% 1 19.09.2026 -
Alan Virginius Young Boys Ativo 123 / 126 40% 1 19.09.2026 -
Tommy St. Jago KV Mechelen Ativo 117 / 121 40% 2 16.09.2026 -
Nayel Mehssatou KV Kortrijk Ativo 120 / 114 40% 1 15.09.2026 -
Mamoudou Karamoko Dinamo Bucharest Ativo 106 / 120 40% 1 15.09.2026 -
Mario Stroeykens Anderlecht Ativo 119 / 118 40% 1 13.09.2026 -
Bryan Heynen Racing Genk Ativo 130 / 130 40% 1 09.09.2026 -
Tristan Muyumba Atlanta United FC Ativo 114 / 96 40% 1 09.09.2026 -
Bill Antonio KV Mechelen Ativo 114 / 110 40% 1 07.09.2026 -
Cisse Sandra Westerlo Ativo 107 / 112 40% 1 31.08.2026 -
Jan Virgili Club Brugge Ativo 123 / 121 40% 1 26.08.2026 -
Jérémy Jacquet Liverpool Ativo 131 / 138 40% 1 17.08.2026 -
Amine Adli Bournemouth Ativo 150 / 139 40% 1 01.08.2026 -